Terminal Aerodrome Forecast
Issued by NWS

Home | Current Version | Previous Version | Text Only | Print | Product List | Glossary On
Versions: 1 2 3 4 5 6 7 8 9 10 11 12 13 14 15 16 17 18 19 20 21 22 23 24 25 26 27 28 29 30 31 32 33 34 35 36 37 38 39 40 41 42 43 44 45 46 47 48 49 50
000
FTUS42 KRAH 222340
TAFINT
TAF
KINT 222340Z 2300/2324 VRB03KT P6SM SCT080 BKN150 OVC200
      TEMPO 2300/2304 3SM -SHRA BKN030
     FM230600 VRB03KT P6SM VCSH OVC040
      TEMPO 2306/2309 3SM -SHRA BR OVC018
     FM230900 06007KT 5SM -SHRA BR OVC007
      TEMPO 2309/2312 1 1/2SM SHRA BR OVC004
     FM231400 07008KT P6SM VCSH OVC008
     FM231700 03006KT 3SM -SHRA OVC007=

USA.gov is the U.S. government's official web portal to all federal, state and local government web resources and services.